EFKS Airport Information

Runway Information
Runway 12 Length 8202 ft width 148 ft
Elevation 866 ft Threshold 131 ft Heading 132
Runway 30 Length 8202 ft Width 148 ft
Elevation 865 ft Threshold 0 ft Heading 312
Airport Frequencies
Type AFIS Name AFIS Frequency 118.65 MHZ
Type ATIS Name ATIS Frequency 114.4 MHZ
Airport Navaids
Type VOR-DME Name Kantola Frequency 114400 KHZ
Type NDB Name Kilo-Sierra Frequency 340 KHZ
Airport Weather Information & NOTAM
ADDS - METARS form results

(0206 UTC 19 September 2021)
Data provider http://aviationweather.gov/metar/data/
 
METAR text: EFKS 190150Z AUTO VRB02KT 9999 OVC041 03/01 Q1031
Conditions at: EFKS (KUUSAMO , FI) observed 0150 UTC 19 September 2021
Temperature: 3.0°C (37°F)
Dewpoint: 1.0°C (34°F) [RH = 87%]
Pressure (altimeter): 30.44 inches Hg (1031.0 mb)
Winds: variable direction winds at 2 MPH (2 knots; 1.0 m/s)
Visibility: 6 or more miles (10+ km)
Ceiling: 4100 feet AGL
Clouds: overcast cloud deck at 4100 feet AGL
Weather: no significant weather observed at this time

METAR text: EFKS 190120Z AUTO VRB02KT 9999 OVC039 03/01 Q1031
Conditions at: EFKS (KUUSAMO , FI) observed 0120 UTC 19 September 2021
Temperature: 3.0°C (37°F)
Dewpoint: 1.0°C (34°F) [RH = 87%]
Pressure (altimeter): 30.44 inches Hg (1031.0 mb)
Winds: variable direction winds at 2 MPH (2 knots; 1.0 m/s)
Visibility: 6 or more miles (10+ km)
Ceiling: 3900 feet AGL
Clouds: overcast cloud deck at 3900 feet AGL
Weather: no significant weather observed at this time